Time;durP1;ratioP1;P1;durP2;ratioP2;P2;SDS_P1;SDS_P2;PMS_P1;PMS_P2;Temp;Humidity;BMP_temperature;BMP_pressure;BME280_temperature;BME280_humidity;BME280_pressure;Samples;Min_cycle;Max_cycle;Signal;HPM_P1;HPM_P2
2022/03/01 00:01:21;;;;;;;15.50;6.82;;;;;;;0.71;59.55;102942.38;5046026;28;20073;-69
2022/03/01 00:03:48;;;;;;;17.52;8.18;;;;;;;0.00;62.16;102918.25;5045328;28;20053;-70
2022/03/01 00:06:15;;;;;;;20.10;7.35;;;;;;;0.15;61.77;102917.75;5040011;28;20096;-70
2022/03/01 00:08:41;;;;;;;16.70;7.93;;;;;;;-0.16;62.60;102919.53;5032368;28;20045;-70
2022/03/01 00:11:07;;;;;;;19.55;6.97;;;;;;;-0.16;63.27;102927.28;5036039;28;20045;-70
2022/03/01 00:13:35;;;;;;;17.17;7.90;;;;;;;0.37;61.38;102920.06;5040360;28;20049;-70
2022/03/01 00:16:02;;;;;;;21.33;7.97;;;;;;;0.29;61.15;102908.66;5035881;28;20072;-70
2022/03/01 00:18:28;;;;;;;18.73;8.25;;;;;;;0.24;61.18;102917.97;5051611;28;20485;-70
2022/03/01 00:20:56;;;;;;;16.63;7.93;;;;;;;-0.20;62.47;102917.72;5047043;28;20456;-70
2022/03/01 00:23:22;;;;;;;13.27;6.22;;;;;;;0.41;60.98;102912.41;5039576;28;20076;-70
2022/03/01 00:25:49;;;;;;;15.98;7.28;;;;;;;0.40;60.93;102921.00;5031465;28;20099;-70
2022/03/01 00:28:15;;;;;;;17.00;7.22;;;;;;;0.20;61.29;102911.00;5031707;28;20099;-70
2022/03/01 00:30:41;;;;;;;14.93;6.70;;;;;;;0.57;60.42;102910.19;5034539;28;20108;-70
2022/03/01 00:33:07;;;;;;;17.10;6.50;;;;;;;0.23;61.00;102903.31;5047757;28;20555;-69
2022/03/01 00:35:34;;;;;;;16.52;6.75;;;;;;;0.29;61.11;102906.97;5042333;28;20068;-70
2022/03/01 00:38:01;;;;;;;10.65;5.38;;;;;;;0.24;61.45;102892.19;5039524;28;20095;-70
2022/03/01 00:40:28;;;;;;;18.85;7.47;;;;;;;0.25;61.21;102892.22;5042830;28;20478;-69
2022/03/01 00:42:54;;;;;;;15.50;6.93;;;;;;;0.60;60.37;102895.63;5042232;28;20049;-69
2022/03/01 00:45:20;;;;;;;20.00;6.70;;;;;;;0.45;60.67;102892.69;5048819;28;20045;-69
2022/03/01 00:47:47;;;;;;;14.20;6.30;;;;;;;0.17;61.76;102898.91;5048374;28;20203;-69
2022/03/01 00:50:13;;;;;;;14.77;6.22;;;;;;;0.14;62.29;102888.50;5046095;28;20126;-70
2022/03/01 00:52:40;;;;;;;18.02;8.15;;;;;;;-0.55;64.18;102895.22;5047234;28;20048;-69
2022/03/01 00:55:08;;;;;;;17.85;7.80;;;;;;;-0.44;64.22;102888.66;5044938;28;20624;-69
2022/03/01 00:57:35;;;;;;;16.25;6.93;;;;;;;-0.07;63.44;102888.81;5049999;28;20524;-69
2022/03/01 01:00:02;;;;;;;15.60;6.47;;;;;;;-0.51;64.33;102889.34;5048430;28;20103;-69
2022/03/01 01:02:28;;;;;;;14.77;6.65;;;;;;;-0.22;63.69;102891.00;5049921;28;20626;-69
2022/03/01 01:04:55;;;;;;;13.77;7.20;;;;;;;-0.35;64.08;102883.78;5044353;28;20046;-69
2022/03/01 01:07:21;;;;;;;19.30;5.72;;;;;;;-0.26;63.62;102890.91;5042530;28;20102;-69
2022/03/01 01:09:47;;;;;;;18.25;7.95;;;;;;;-0.24;63.82;102881.47;5034550;28;20057;-70
2022/03/01 01:12:15;;;;;;;16.40;6.60;;;;;;;-0.69;65.15;102897.41;5044064;28;20563;-69
2022/03/01 01:14:41;;;;;;;15.60;7.25;;;;;;;-0.70;65.39;102893.09;5041640;28;20102;-69
2022/03/01 01:17:08;;;;;;;15.52;7.07;;;;;;;-0.57;64.97;102877.16;5047873;28;20505;-70
2022/03/01 01:19:34;;;;;;;14.77;5.93;;;;;;;-0.01;63.42;102875.22;5040095;28;20041;-70
2022/03/01 01:24:45;;;;;;;12.95;6.07;;;;;;;-0.42;64.42;102870.69;5042363;28;20150;-70
2022/03/01 01:27:11;;;;;;;17.17;7.47;;;;;;;-0.14;63.56;102883.47;5032680;28;20081;-69
2022/03/01 01:29:39;;;;;;;10.27;4.95;;;;;;;-0.18;63.41;102882.50;5033671;28;20115;-69
2022/03/01 01:32:06;;;;;;;14.38;6.60;;;;;;;-0.19;63.26;102880.78;5050108;28;20122;-69
2022/03/01 01:34:33;;;;;;;17.33;7.28;;;;;;;-0.51;64.79;102884.19;5041293;28;20628;-69
2022/03/01 01:36:59;;;;;;;12.23;5.93;;;;;;;0.20;62.83;102874.88;5037245;28;20102;-70
2022/03/01 01:39:26;;;;;;;13.13;6.45;;;;;;;0.35;61.98;102881.28;5032258;28;20481;-69
2022/03/01 01:41:52;;;;;;;13.95;5.72;;;;;;;0.57;61.32;102882.66;5042382;28;20079;-69
2022/03/01 01:44:19;;;;;;;16.50;6.60;;;;;;;-0.03;62.80;102882.03;5044292;28;20068;-70
2022/03/01 01:46:46;;;;;;;18.05;8.00;;;;;;;0.14;62.45;102890.22;5049318;28;20044;-69
2022/03/01 01:49:13;;;;;;;13.93;5.50;;;;;;;-0.08;62.88;102883.63;5047385;28;20510;-69
2022/03/01 01:51:39;;;;;;;14.55;6.85;;;;;;;0.20;62.02;102875.75;5040343;28;20118;-70
2022/03/01 01:54:06;;;;;;;16.20;7.13;;;;;;;-0.06;63.04;102888.00;5039604;28;20049;-70
2022/03/01 01:56:33;;;;;;;16.10;6.63;;;;;;;-0.50;64.54;102889.38;5049754;28;20090;-69
2022/03/01 01:58:59;;;;;;;12.27;4.93;;;;;;;-0.34;64.41;102882.94;5048074;28;20076;-69
2022/03/01 02:01:26;;;;;;;15.52;7.10;;;;;;;0.39;61.76;102874.50;5047850;28;20060;-69
2022/03/01 02:03:54;;;;;;;13.27;6.82;;;;;;;0.47;60.96;102876.44;5042245;28;20519;-69
2022/03/01 02:06:20;;;;;;;13.45;6.32;;;;;;;0.15;61.69;102882.50;5043596;28;20042;-70
2022/03/01 02:08:46;;;;;;;13.45;6.28;;;;;;;0.39;61.45;102880.53;5042130;28;20068;-69
2022/03/01 02:11:13;;;;;;;15.18;6.90;;;;;;;0.36;61.23;102869.25;5041851;28;20123;-70
2022/03/01 02:13:39;;;;;;;16.80;7.20;;;;;;;0.32;61.07;102876.06;5041453;28;20052;-69
2022/03/01 02:16:05;;;;;;;14.15;6.63;;;;;;;-0.06;62.40;102872.53;5037549;28;20069;-69
2022/03/01 02:18:32;;;;;;;10.43;4.85;;;;;;;0.26;61.45;102875.03;5042057;28;20069;-70
2022/03/01 02:21:00;;;;;;;12.80;5.90;;;;;;;0.10;61.31;102872.91;5045053;28;20057;-69
2022/03/01 02:23:27;;;;;;;16.00;5.78;;;;;;;0.24;61.50;102864.69;5041388;28;20053;-69
2022/03/01 02:25:53;;;;;;;13.57;5.57;;;;;;;-0.10;62.14;102868.13;5037145;28;20050;-69
2022/03/01 02:28:20;;;;;;;12.00;5.53;;;;;;;-0.14;62.79;102863.72;5030214;28;20436;-69
2022/03/01 02:30:46;;;;;;;21.98;7.75;;;;;;;0.10;61.32;102854.84;5028157;28;20045;-69
2022/03/01 02:33:13;;;;;;;16.73;7.43;;;;;;;-0.57;63.58;102861.72;5041165;28;20126;-70
2022/03/01 02:35:39;;;;;;;14.25;7.30;;;;;;;-0.53;64.11;102853.22;5030657;28;20122;-69
2022/03/01 02:38:07;;;;;;;14.57;6.75;;;;;;;-0.43;64.04;102853.47;5041185;28;20072;-69
2022/03/01 02:40:33;;;;;;;16.52;6.88;;;;;;;0.26;61.52;102844.94;5048821;28;20053;-70
2022/03/01 02:43:00;;;;;;;8.10;3.90;;;;;;;-0.31;62.81;102849.53;5040852;28;20072;-70
2022/03/01 02:45:26;;;;;;;13.43;6.53;;;;;;;-0.64;64.69;102833.16;5049564;28;20094;-69
2022/03/01 02:47:52;;;;;;;14.73;7.60;;;;;;;-0.63;64.34;102843.47;5047385;28;20534;-69
2022/03/01 02:50:19;;;;;;;12.68;6.00;;;;;;;-0.80;65.24;102838.69;5047915;28;20091;-69
2022/03/01 02:52:46;;;;;;;10.05;4.68;;;;;;;-0.25;63.56;102841.06;5045038;28;20047;-69
2022/03/01 02:55:14;;;;;;;11.55;5.72;;;;;;;-0.69;64.39;102839.88;5032445;28;20072;-70
2022/03/01 02:57:41;;;;;;;17.02;7.68;;;;;;;-0.85;65.49;102843.72;5029170;28;20045;-69
2022/03/01 03:00:10;;;;;;;9.57;5.45;;;;;;;-0.84;65.10;102842.91;5028526;28;20135;-70
2022/03/01 03:02:36;;;;;;;20.85;8.95;;;;;;;-1.18;66.53;102853.03;5036606;28;20077;-69
2022/03/01 03:05:04;;;;;;;12.63;6.45;;;;;;;-0.37;63.84;102836.44;5039370;28;20586;-69
2022/03/01 03:07:30;;;;;;;11.77;6.65;;;;;;;-0.73;64.84;102832.88;5046525;28;20130;-70
2022/03/01 03:09:57;;;;;;;11.00;5.03;;;;;;;-0.83;65.46;102836.03;5041532;28;20111;-69
2022/03/01 03:12:24;;;;;;;18.98;7.53;;;;;;;-0.43;64.28;102832.84;5038393;28;20075;-69
2022/03/01 03:14:51;;;;;;;17.63;6.93;;;;;;;-1.07;66.33;102833.63;5043189;28;20120;-70
2022/03/01 03:17:17;;;;;;;14.70;7.68;;;;;;;-0.86;65.99;102842.00;5048544;28;20194;-69
2022/03/01 03:19:43;;;;;;;6.43;4.35;;;;;;;-0.73;65.36;102836.34;5043567;28;20567;-69
2022/03/01 03:22:10;;;;;;;19.05;7.85;;;;;;;-0.85;65.35;102837.72;5041918;28;20099;-69
2022/03/01 03:24:36;;;;;;;15.43;6.65;;;;;;;-0.68;65.36;102836.47;5046042;28;20041;-69
2022/03/01 03:27:03;;;;;;;15.30;6.53;;;;;;;-1.09;66.25;102848.16;5032425;28;20037;-69
2022/03/01 03:29:31;;;;;;;13.43;6.72;;;;;;;-0.85;65.44;102842.88;5032562;28;20103;-69
2022/03/01 03:31:58;;;;;;;16.52;7.50;;;;;;;-0.64;64.79;102835.72;5052605;28;20075;-70
2022/03/01 03:34:26;;;;;;;14.02;7.20;;;;;;;-0.56;63.99;102834.25;5044435;28;20076;-69
2022/03/01 03:36:52;;;;;;;18.75;6.40;;;;;;;-0.71;64.18;102839.84;5048009;28;20100;-70
2022/03/01 03:39:19;;;;;;;16.13;6.65;;;;;;;-0.41;63.50;102844.09;5047975;28;20106;-69
2022/03/01 03:41:45;;;;;;;16.45;7.20;;;;;;;-0.44;63.18;102837.13;5050363;28;20099;-69
2022/03/01 03:44:12;;;;;;;16.27;7.00;;;;;;;-0.73;63.96;102838.03;5042015;28;20048;-70
2022/03/01 03:46:39;;;;;;;12.45;6.35;;;;;;;-0.61;63.98;102835.81;5047916;28;20072;-69
2022/03/01 03:49:06;;;;;;;14.43;7.10;;;;;;;-0.72;63.99;102821.75;5050716;28;20049;-69
2022/03/01 03:51:33;;;;;;;15.82;6.63;;;;;;;-0.57;63.63;102825.63;5050096;28;20090;-69
2022/03/01 03:53:59;;;;;;;12.00;6.13;;;;;;;-0.10;61.91;102832.00;5051346;28;20053;-70
2022/03/01 03:56:26;;;;;;;17.83;6.45;;;;;;;-0.64;63.13;102833.16;5050925;28;20110;-69
2022/03/01 03:58:55;;;;;;;13.85;6.38;;;;;;;-0.81;63.96;102834.41;5051135;28;20052;-69
2022/03/01 04:01:22;;;;;;;16.63;6.78;;;;;;;-0.86;64.39;102823.97;5050718;28;20053;-69
2022/03/01 04:03:50;;;;;;;17.85;7.20;;;;;;;-0.68;63.52;102819.31;5043208;28;20092;-69
2022/03/01 04:06:16;;;;;;;15.10;7.15;;;;;;;-0.88;64.02;102824.72;5032648;28;20390;-69
2022/03/01 04:08:43;;;;;;;13.23;6.03;;;;;;;-0.73;63.94;102825.16;5047955;28;20497;-70
2022/03/01 04:11:11;;;;;;;15.80;7.32;;;;;;;-0.47;62.97;102821.59;5046273;28;20053;-70
2022/03/01 04:13:37;;;;;;;12.50;5.75;;;;;;;-0.42;62.63;102822.59;5060443;28;20052;-69
2022/03/01 04:16:04;;;;;;;15.55;7.40;;;;;;;-0.48;62.93;102821.56;5062940;28;20079;-69
2022/03/01 04:18:31;;;;;;;13.90;7.90;;;;;;;-1.15;64.75;102823.13;5055788;28;20041;-68
2022/03/01 04:20:58;;;;;;;14.93;7.05;;;;;;;-1.26;65.33;102824.53;5041269;28;20489;-69
2022/03/01 04:23:25;;;;;;;16.88;6.80;;;;;;;-1.27;65.38;102819.31;5044975;28;20046;-70
2022/03/01 04:25:51;;;;;;;16.02;7.45;;;;;;;-1.44;65.65;102831.66;5054033;28;20418;-69
2022/03/01 04:28:17;;;;;;;15.07;6.97;;;;;;;-1.52;66.31;102830.56;5052567;28;20044;-69
2022/03/01 04:30:44;;;;;;;9.35;4.22;;;;;;;-1.63;66.35;102827.69;5048489;28;20059;-69
2022/03/01 04:33:10;;;;;;;18.95;8.00;;;;;;;-1.50;66.09;102819.50;5042089;28;20238;-69
2022/03/01 04:35:37;;;;;;;18.83;7.47;;;;;;;-1.14;64.95;102812.00;5042275;28;20045;-69
2022/03/01 04:38:05;;;;;;;17.10;7.43;;;;;;;-0.93;64.41;102808.28;5041738;28;20048;-69
2022/03/01 04:40:31;;;;;;;14.02;6.25;;;;;;;-0.99;63.97;102803.81;5040957;28;20053;-69
2022/03/01 04:42:58;;;;;;;14.38;7.07;;;;;;;-0.81;63.15;102795.78;5045720;28;20095;-69
2022/03/01 04:45:24;;;;;;;12.07;6.75;;;;;;;-1.20;65.09;102814.41;5046890;28;20042;-69
2022/03/01 04:47:51;;;;;;;14.20;6.85;;;;;;;-0.84;63.79;102805.97;5044635;28;20485;-69
2022/03/01 04:50:17;;;;;;;12.70;6.28;;;;;;;-0.87;63.30;102806.75;5049993;28;20148;-69
2022/03/01 04:52:43;;;;;;;15.32;7.32;;;;;;;-1.31;64.97;102814.91;5037801;28;20045;-69
2022/03/01 04:55:11;;;;;;;15.73;6.85;;;;;;;-0.57;62.55;102799.00;5047989;28;20455;-69
2022/03/01 04:57:38;;;;;;;12.93;6.68;;;;;;;-0.91;62.97;102806.63;5049716;28;20041;-69
2022/03/01 05:00:10;;;;;;;12.38;6.43;;;;;;;-1.14;64.09;102799.13;5049555;28;20056;-69
2022/03/01 05:02:36;;;;;;;;;;;;;;;-0.67;62.62;102800.47;5046790;28;20055;-69
2022/03/01 05:05:03;;;;;;;19.33;7.22;;;;;;;-1.22;64.19;102803.16;5048130;28;19970;-70
2022/03/01 05:07:30;;;;;;;13.90;6.30;;;;;;;-0.67;62.50;102805.63;5040687;28;20041;-70
2022/03/01 05:09:56;;;;;;;16.88;7.30;;;;;;;-0.99;63.42;102809.84;5048185;28;20049;-69
2022/03/01 05:12:24;;;;;;;13.32;7.10;;;;;;;-0.94;63.12;102806.53;5042851;28;20042;-69
2022/03/01 05:14:50;;;;;;;15.63;7.90;;;;;;;-1.12;63.74;102802.63;5042342;28;20107;-69
2022/03/01 05:17:16;;;;;;;10.48;5.20;;;;;;;-1.57;65.43;102812.41;5032195;28;20046;-69
2022/03/01 05:19:43;;;;;;;11.68;6.07;;;;;;;-1.52;65.73;102816.03;5044602;28;20049;-70
2022/03/01 05:22:09;;;;;;;16.38;7.15;;;;;;;-1.23;64.72;102806.59;5047770;28;20052;-70
2022/03/01 05:24:35;;;;;;;15.68;6.63;;;;;;;-1.04;63.52;102821.75;5048641;28;20076;-71
2022/03/01 05:27:02;;;;;;;11.15;6.25;;;;;;;-1.53;65.04;102818.53;5038789;28;20513;-70
2022/03/01 05:29:30;;;;;;;16.08;6.50;;;;;;;-1.15;63.98;102811.97;5046780;28;20114;-70
2022/03/01 05:31:56;;;;;;;11.98;5.68;;;;;;;-1.31;64.28;102817.47;5059474;28;20049;-70
2022/03/01 05:34:22;;;;;;;14.77;6.95;;;;;;;-1.45;65.12;102816.19;5049124;28;20459;-70
2022/03/01 05:36:49;;;;;;;18.35;8.48;;;;;;;-1.12;64.05;102817.19;5050483;28;20095;-70
2022/03/01 05:39:15;;;;;;;15.68;6.70;;;;;;;-0.63;62.33;102809.16;5047504;28;20044;-70
2022/03/01 05:41:41;;;;;;;16.88;7.97;;;;;;;-0.85;62.99;102806.81;5045636;28;20091;-69
2022/03/01 05:44:08;;;;;;;17.90;7.97;;;;;;;-1.38;65.15;102824.16;5041847;28;20049;-68
2022/03/01 05:46:36;;;;;;;17.23;7.70;;;;;;;-1.36;64.63;102826.75;5048080;28;20045;-70
2022/03/01 05:49:02;;;;;;;17.40;7.10;;;;;;;-1.36;64.99;102821.59;5032891;28;20208;-69
2022/03/01 05:51:29;;;;;;;17.40;7.45;;;;;;;-1.37;64.91;102819.88;5049139;28;20489;-70
2022/03/01 05:53:55;;;;;;;14.88;6.55;;;;;;;-0.84;63.29;102827.44;5043384;28;20463;-70
2022/03/01 05:56:22;;;;;;;11.32;4.45;;;;;;;-1.26;64.21;102834.81;5051623;28;20049;-69
2022/03/01 05:58:48;;;;;;;20.50;7.35;;;;;;;-1.32;64.73;102829.47;5043617;28;20060;-70
2022/03/01 06:01:15;;;;;;;9.85;5.60;;;;;;;-1.19;64.56;102831.59;5038132;28;20065;-69
2022/03/01 06:03:42;;;;;;;11.52;6.65;;;;;;;-1.08;64.11;102832.78;5041411;28;20562;-70
2022/03/01 06:06:09;;;;;;;13.95;6.55;;;;;;;-1.01;63.89;102826.97;5033174;28;20052;-69
2022/03/01 06:08:35;;;;;;;10.82;5.75;;;;;;;-1.44;64.49;102838.53;5050962;28;20045;-69
2022/03/01 06:11:01;;;;;;;9.60;4.78;;;;;;;-1.55;65.45;102840.75;5049026;28;20041;-70
2022/03/01 06:13:27;;;;;;;15.30;6.53;;;;;;;-1.53;65.95;102841.69;5045222;28;20546;-69
2022/03/01 06:15:54;;;;;;;15.48;7.93;;;;;;;-1.63;66.23;102840.53;5049447;28;20049;-70
2022/03/01 06:18:21;;;;;;;16.52;8.43;;;;;;;-1.61;66.30;102846.59;5050110;28;20079;-69
2022/03/01 06:20:48;;;;;;;11.02;5.43;;;;;;;-1.45;65.49;102839.34;5049755;28;20049;-70
2022/03/01 06:23:15;;;;;;;18.70;8.70;;;;;;;-1.24;64.42;102843.44;5043799;28;20045;-69
2022/03/01 06:25:43;;;;;;;16.13;5.47;;;;;;;-1.22;64.93;102848.66;5034732;28;20563;-69
2022/03/01 06:28:10;;;;;;;15.68;7.50;;;;;;;-1.31;65.22;102851.81;5043375;28;20065;-69
2022/03/01 06:30:37;;;;;;;11.88;6.43;;;;;;;-1.51;65.63;102852.88;5050243;28;20064;-70
2022/03/01 06:33:04;;;;;;;13.38;6.72;;;;;;;-1.16;64.33;102862.56;5039845;28;20425;-70
2022/03/01 06:35:30;;;;;;;17.50;8.05;;;;;;;-0.68;63.40;102851.94;5040258;28;20053;-71
2022/03/01 06:37:58;;;;;;;16.08;8.48;;;;;;;-0.15;61.35;102841.31;5049883;28;20080;-70
2022/03/01 06:40:25;;;;;;;12.73;7.25;;;;;;;0.09;59.91;102853.09;5045612;28;20080;-70
2022/03/01 06:42:51;;;;;;;19.50;8.75;;;;;;;0.22;59.32;102844.84;5045844;28;20516;-70
2022/03/01 06:45:18;;;;;;;25.13;11.55;;;;;;;-0.32;60.92;102849.47;5048460;28;20525;-70
2022/03/01 06:47:44;;;;;;;15.95;6.65;;;;;;;-0.35;61.59;102846.81;5047925;28;20049;-70
2022/03/01 06:50:11;;;;;;;13.88;6.55;;;;;;;-0.71;62.63;102842.44;5040411;28;20065;-71
2022/03/01 06:52:38;;;;;;;19.65;7.90;;;;;;;-0.72;62.52;102839.78;5037197;28;20045;-70
2022/03/01 06:55:08;;;;;;;14.25;6.85;;;;;;;-0.24;61.17;102846.28;5035851;28;20099;-69
2022/03/01 06:57:35;;;;;;;17.13;8.32;;;;;;;0.00;60.67;102841.72;5051693;28;20049;-69
2022/03/01 07:00:01;;;;;;;16.52;9.05;;;;;;;-0.19;61.08;102844.69;5052618;28;20059;-69
2022/03/01 07:02:28;;;;;;;14.65;7.70;;;;;;;0.07;60.54;102842.78;5048246;28;20356;-69
2022/03/01 07:04:55;;;;;;;17.23;9.00;;;;;;;0.18;60.22;102850.75;5044494;28;20102;-69
2022/03/01 07:07:22;;;;;;;19.40;8.20;;;;;;;0.10;60.37;102858.31;5053936;28;20509;-68
2022/03/01 07:09:49;;;;;;;20.27;8.30;;;;;;;0.32;59.33;102852.84;5051146;28;20578;-69
2022/03/01 07:12:17;;;;;;;17.88;7.53;;;;;;;0.67;58.71;102847.59;5046196;28;20098;-68
2022/03/01 07:14:43;;;;;;;12.07;6.05;;;;;;;0.97;57.52;102838.81;5047281;28;20122;-68
2022/03/01 07:17:10;;;;;;;14.10;7.93;;;;;;;2.01;55.14;102839.06;5051719;28;20045;-68
2022/03/01 07:19:36;;;;;;;14.07;6.95;;;;;;;1.63;56.26;102843.56;5051169;28;20611;-68
2022/03/01 07:22:03;;;;;;;15.77;7.60;;;;;;;1.74;55.65;102839.44;5047630;28;20049;-68
2022/03/01 07:24:29;;;;;;;15.23;7.38;;;;;;;1.65;55.14;102843.59;5049384;28;20095;-69
2022/03/01 07:26:55;;;;;;;11.73;6.90;;;;;;;1.91;54.53;102843.22;5049249;28;20099;-68
2022/03/01 07:29:23;;;;;;;20.20;8.63;;;;;;;2.11;54.53;102847.84;5052598;28;20615;-68
2022/03/01 07:31:49;;;;;;;14.05;7.47;;;;;;;3.24;51.71;102843.44;5053552;28;20488;-68
2022/03/01 07:34:16;;;;;;;15.00;8.50;;;;;;;2.89;52.23;102862.00;5041243;28;20409;-68
2022/03/01 07:36:42;;;;;;;15.15;7.43;;;;;;;2.70;51.74;102857.41;5053852;28;20495;-69
2022/03/01 07:39:09;;;;;;;17.38;8.57;;;;;;;1.95;54.36;102857.97;5052972;28;20508;-69
2022/03/01 07:41:35;;;;;;;14.95;8.35;;;;;;;2.38;53.31;102864.69;5046217;28;20045;-68
2022/03/01 07:44:02;;;;;;;11.93;8.05;;;;;;;2.74;52.92;102866.94;5052073;28;20500;-68
2022/03/01 07:46:29;;;;;;;21.52;8.75;;;;;;;3.70;51.16;102858.63;5052438;28;20049;-69
2022/03/01 07:48:56;;;;;;;15.18;7.85;;;;;;;4.30;48.53;102858.31;5046717;28;20053;-69
2022/03/01 07:51:22;;;;;;;12.55;8.77;;;;;;;3.51;50.16;102851.50;5053561;28;20069;-69
2022/03/01 07:53:48;;;;;;;16.58;8.20;;;;;;;4.60;48.90;102857.69;5044248;28;20056;-69
2022/03/01 07:56:15;;;;;;;16.58;7.80;;;;;;;4.10;48.55;102856.44;5052398;28;20057;-69
2022/03/01 07:58:41;;;;;;;16.65;8.70;;;;;;;3.75;49.85;102859.56;5052648;28;20040;-69
2022/03/01 08:01:07;;;;;;;12.98;7.88;;;;;;;3.02;51.15;102851.78;5045007;28;20065;-69
2022/03/01 08:03:35;;;;;;;14.98;8.90;;;;;;;3.51;51.41;102843.72;5051619;28;20041;-69
2022/03/01 08:06:01;;;;;;;14.82;7.75;;;;;;;4.95;48.02;102841.41;5052843;28;20053;-69
2022/03/01 08:08:28;;;;;;;11.88;7.80;;;;;;;4.27;47.57;102844.44;5051437;28;20041;-69
2022/03/01 08:10:54;;;;;;;13.70;9.00;;;;;;;4.42;47.91;102841.97;5051855;28;20053;-69
2022/03/01 08:13:20;;;;;;;15.57;8.38;;;;;;;4.60;48.26;102831.69;5046879;28;20108;-69
2022/03/01 08:15:47;;;;;;;15.65;8.20;;;;;;;3.69;49.07;102841.34;5049234;28;20118;-69
2022/03/01 08:18:13;;;;;;;17.13;7.85;;;;;;;4.18;48.24;102834.84;5046484;28;20106;-70
2022/03/01 08:20:41;;;;;;;14.73;8.13;;;;;;;4.81;47.81;102831.81;5050969;28;20130;-69
2022/03/01 08:23:07;;;;;;;12.20;8.05;;;;;;;6.07;45.77;102826.09;5046328;28;20103;-69
2022/03/01 08:25:34;;;;;;;15.02;7.82;;;;;;;5.48;44.92;102826.00;5040437;28;20052;-69
2022/03/01 08:28:01;;;;;;;14.07;8.63;;;;;;;5.06;46.59;102817.22;5049612;28;20056;-69
2022/03/01 08:30:28;;;;;;;16.65;9.20;;;;;;;3.97;48.42;102826.03;5043045;28;20128;-69
2022/03/01 08:32:55;;;;;;;13.30;8.48;;;;;;;4.46;48.36;102829.88;5047844;28;20072;-69
2022/03/01 08:35:22;;;;;;;13.57;7.90;;;;;;;5.44;46.34;102825.13;5050821;28;20330;-69
2022/03/01 08:37:51;;;;;;;22.58;8.05;;;;;;;5.15;46.98;102809.44;5051154;28;20073;-69
2022/03/01 08:40:19;;;;;;;16.10;8.50;;;;;;;5.25;46.22;102820.72;5050137;28;20064;-69
2022/03/01 08:42:46;;;;;;;13.57;8.05;;;;;;;5.01;46.77;102807.66;5044324;28;20057;-69
2022/03/01 08:45:13;;;;;;;15.02;8.25;;;;;;;4.51;48.18;102810.84;5046773;28;20045;-69
2022/03/01 08:47:40;;;;;;;13.88;7.35;;;;;;;4.55;48.67;102816.91;5048527;28;20041;-69
2022/03/01 08:50:07;;;;;;;13.00;7.90;;;;;;;5.47;46.99;102809.50;5046697;28;20071;-70
2022/03/01 08:52:33;;;;;;;13.73;8.05;;;;;;;5.55;46.58;102794.78;5039734;28;20560;-69
2022/03/01 08:55:01;;;;;;;15.88;8.35;;;;;;;5.71;46.53;102812.19;5036366;28;20068;-69
2022/03/01 08:57:27;;;;;;;12.68;7.90;;;;;;;5.43;47.27;102799.13;5048393;28;20072;-69
2022/03/01 08:59:54;;;;;;;12.35;8.13;;;;;;;5.46;46.61;102800.00;5049753;28;20069;-70
2022/03/01 09:02:20;;;;;;;16.17;8.68;;;;;;;5.21;47.03;102803.41;5048381;28;20562;-70
2022/03/01 09:04:47;;;;;;;15.80;8.75;;;;;;;4.90;47.26;102810.19;5049248;28;20266;-70
2022/03/01 09:07:13;;;;;;;16.70;8.10;;;;;;;5.75;46.32;102794.81;5049783;28;20404;-70
2022/03/01 09:09:39;;;;;;;13.07;6.97;;;;;;;5.13;46.66;102794.69;5047380;28;20515;-70
2022/03/01 09:12:08;;;;;;;14.02;8.25;;;;;;;5.49;47.25;102788.72;5040244;28;20053;-70
2022/03/01 09:14:34;;;;;;;15.10;7.45;;;;;;;6.43;45.03;102783.53;5042477;28;20048;-70
2022/03/01 09:17:00;;;;;;;15.98;7.78;;;;;;;7.47;42.86;102775.22;5038545;28;20489;-70
2022/03/01 09:19:27;;;;;;;14.18;8.30;;;;;;;7.11;41.86;102780.66;5048433;28;20094;-70
2022/03/01 09:21:55;;;;;;;15.75;7.40;;;;;;;7.10;42.08;102777.19;5047955;28;20455;-70
2022/03/01 09:24:21;;;;;;;12.07;7.68;;;;;;;5.74;44.18;102793.06;5038672;28;20051;-70
2022/03/01 09:26:47;;;;;;;15.75;8.32;;;;;;;6.66;43.93;102774.75;5030786;28;20045;-70
2022/03/01 09:29:15;;;;;;;15.75;8.30;;;;;;;7.17;42.97;102767.59;5038530;28;20551;-70
2022/03/01 09:31:42;;;;;;;15.25;7.88;;;;;;;5.92;44.46;102764.47;5049469;28;20043;-70
2022/03/01 09:34:08;;;;;;;13.45;8.35;;;;;;;6.29;43.91;102767.91;5049629;28;20077;-70
2022/03/01 09:36:35;;;;;;;16.50;7.65;;;;;;;6.79;42.22;102766.03;5047290;28;20064;-70
2022/03/01 09:39:02;;;;;;;13.13;8.73;;;;;;;6.81;42.20;102763.41;5048575;28;20504;-70
2022/03/01 09:41:28;;;;;;;13.35;7.13;;;;;;;6.50;44.07;102762.66;5037406;28;20049;-70
2022/03/01 09:43:58;;;;;;;15.35;7.82;;;;;;;6.29;43.67;102760.09;5029228;28;20203;-70
2022/03/01 09:46:26;;;;;;;17.10;7.45;;;;;;;5.86;43.70;102760.16;5037640;28;20127;-70
2022/03/01 09:48:52;;;;;;;14.00;8.75;;;;;;;6.68;43.97;102749.56;5043188;28;20489;-70
2022/03/01 09:51:20;;;;;;;18.73;9.63;;;;;;;6.46;43.91;102760.06;5043699;28;20068;-70
2022/03/01 09:53:47;;;;;;;15.77;8.95;;;;;;;6.85;43.83;102763.41;5041086;28;20045;-70
2022/03/01 09:56:15;;;;;;;13.23;7.68;;;;;;;7.38;42.66;102759.66;5049377;28;20065;-70
2022/03/01 09:58:41;;;;;;;13.18;8.13;;;;;;;7.40;40.98;102757.88;5048942;28;20072;-70
2022/03/01 10:01:07;;;;;;;14.00;8.20;;;;;;;8.50;40.50;102753.44;5038814;28;20631;-70
2022/03/01 10:03:36;;;;;;;13.60;6.95;;;;;;;8.67;39.25;102746.28;5032934;28;20072;-71
2022/03/01 10:06:07;;;;;;;14.32;9.10;;;;;;;8.43;39.12;102749.16;5028994;28;20053;-71
2022/03/01 10:08:34;;;;;;;12.77;7.40;;;;;;;8.57;38.90;102742.03;5029355;28;20037;-70
2022/03/01 10:11:00;;;;;;;11.38;7.47;;;;;;;9.24;39.01;102746.38;5033380;28;20100;-70
2022/03/01 10:13:29;;;;;;;11.88;7.47;;;;;;;8.14;38.21;102744.22;5037895;28;20049;-70
2022/03/01 10:16:03;;;;;;;12.57;7.78;;;;;;;8.49;39.02;102737.78;5043057;28;20814;-70
2022/03/01 10:18:32;;;;;;;12.73;8.02;;;;;;;9.27;39.73;102738.53;5041816;28;20096;-70
2022/03/01 10:21:04;;;;;;;11.75;7.38;;;;;;;9.16;37.67;102737.81;5042965;28;20173;-70
2022/03/01 10:23:31;;;;;;;13.43;7.63;;;;;;;8.34;37.75;102738.81;5045134;28;20090;-70
2022/03/01 10:25:57;;;;;;;12.27;7.30;;;;;;;7.82;38.53;102739.31;5035752;28;20073;-70
2022/03/01 10:28:33;;;;;;;12.95;6.85;;;;;;;7.65;39.89;102725.50;5029454;28;20049;-70
2022/03/01 10:31:09;;;;;;;14.77;7.78;;;;;;;7.23;40.65;102737.13;5044040;28;20473;-71
2022/03/01 10:33:36;;;;;;;13.18;6.75;;;;;;;7.66;40.97;102727.22;5044095;28;20037;-70
2022/03/01 10:36:04;;;;;;;15.57;8.20;;;;;;;7.41;40.98;102725.69;5037259;28;20045;-70
2022/03/01 10:38:30;;;;;;;15.70;7.90;;;;;;;7.90;39.57;102730.53;5047943;28;20049;-70
2022/03/01 10:40:58;;;;;;;14.93;8.18;;;;;;;8.02;39.91;102731.25;5043405;28;20050;-69
2022/03/01 10:43:26;;;;;;;15.63;8.50;;;;;;;7.49;39.69;102733.47;5043284;28;20134;-69
2022/03/01 10:45:52;;;;;;;9.82;6.47;;;;;;;7.02;41.27;102726.78;5048070;28;20098;-70
2022/03/01 10:48:26;;;;;;;13.23;7.95;;;;;;;7.91;42.76;102716.59;5045404;28;20068;-70
2022/03/01 10:50:58;;;;;;;13.13;7.88;;;;;;;8.95;38.49;102710.16;5047921;28;20044;-70
2022/03/01 10:53:29;;;;;;;;;;;;;;;7.71;39.76;102724.59;5040155;28;20080;-70
2022/03/01 10:56:00;;;;;;;10.23;6.05;;;;;;;6.78;40.65;102714.75;5029207;28;19960;-70
2022/03/01 10:58:28;;;;;;;12.73;7.35;;;;;;;8.15;41.57;102716.34;5029859;28;20099;-70
2022/03/01 11:00:54;;;;;;;15.23;6.25;;;;;;;8.09;39.33;102711.19;5047141;28;20633;-70
2022/03/01 11:03:21;;;;;;;14.10;8.27;;;;;;;7.56;40.12;102704.69;5048744;28;20550;-70
2022/03/01 11:05:48;;;;;;;12.20;7.00;;;;;;;8.22;41.78;102702.31;5048406;28;20485;-70
2022/03/01 11:08:17;;;;;;;18.65;8.93;;;;;;;7.72;39.84;102710.66;5048548;28;20519;-70
2022/03/01 11:10:45;;;;;;;12.65;6.95;;;;;;;8.07;40.93;102700.75;5044210;28;20135;-70
2022/03/01 11:13:13;;;;;;;10.30;7.05;;;;;;;7.59;40.42;102694.22;5030329;28;20053;-70
2022/03/01 11:15:55;;;;;;;14.90;6.20;;;;;;;7.90;39.10;102705.28;5047326;28;20045;-70
2022/03/01 11:18:35;;;;;;;10.45;6.75;;;;;;;7.18;39.91;102684.09;5043828;28;20048;-69
2022/03/01 11:21:03;;;;;;;12.85;6.97;;;;;;;7.31;40.66;102687.50;5047841;28;20049;-70
2022/03/01 11:23:30;;;;;;;14.18;7.75;;;;;;;7.39;41.53;102684.84;5039210;28;20098;-70